Time;durP1;ratioP1;P1;durP2;ratioP2;P2;SDS_P1;SDS_P2;PMS_P1;PMS_P2;Temp;Humidity;BMP_temperature;BMP_pressure;BME280_temperature;BME280_humidity;BME280_pressure;Samples;Min_cycle;Max_cycle;Signal;HPM_P1;HPM_P2
2023/03/23 06:00:43;;;;;;;5.23;1.90;;;14.90;97.20;;;;;;1693732;29;20196;-64
2023/03/23 06:01:34;;;;;;;1.33;1.23;;;14.90;97.20;;;;;;1693998;29;20674;-65
2023/03/23 06:02:29;;;;;;;2.10;1.40;;;14.90;97.20;;;;;;1694144;29;20211;-64
2023/03/23 06:03:20;;;;;;;1.70;1.60;;;14.90;97.20;;;;;;1694221;29;20566;-65
2023/03/23 06:04:13;;;;;;;1.77;1.48;;;15.00;97.20;;;;;;1693788;29;20279;-64
2023/03/23 06:05:05;;;;;;;1.85;1.40;;;15.00;97.20;;;;;;1693548;29;20207;-65
2023/03/23 06:05:57;;;;;;;2.05;1.83;;;15.00;97.20;;;;;;1693487;29;20227;-64
2023/03/23 06:06:48;;;;;;;2.65;1.42;;;15.00;97.20;;;;;;1694041;29;20234;-64
2023/03/23 06:07:40;;;;;;;1.67;1.27;;;15.00;97.20;;;;;;1694242;29;20701;-64
2023/03/23 06:08:31;;;;;;;2.72;1.85;;;15.10;97.20;;;;;;1694142;29;20208;-64
2023/03/23 06:09:24;;;;;;;1.90;1.70;;;15.10;97.20;;;;;;1694188;29;20287;-65
2023/03/23 06:10:16;;;;;;;3.85;1.50;;;15.10;97.20;;;;;;1694039;29;20575;-64
2023/03/23 06:11:08;;;;;;;2.80;1.70;;;15.10;97.20;;;;;;1694172;29;20215;-64
2023/03/23 06:11:59;;;;;;;1.60;1.50;;;15.10;97.20;;;;;;1694250;29;20666;-64
2023/03/23 06:12:51;;;;;;;1.77;1.60;;;15.20;97.20;;;;;;1694152;29;20658;-64
2023/03/23 06:13:42;;;;;;;2.78;2.08;;;15.20;97.20;;;;;;1694077;29;20745;-66
2023/03/23 06:14:34;;;;;;;2.03;1.40;;;15.20;97.20;;;;;;1694147;29;20654;-64
2023/03/23 06:15:28;;;;;;;1.80;1.70;;;15.20;97.20;;;;;;1693672;29;20258;-64
2023/03/23 06:16:21;;;;;;;3.38;1.83;;;15.20;97.20;;;;;;1694082;29;20213;-65
2023/03/23 06:17:12;;;;;;;1.48;1.38;;;15.20;97.20;;;;;;1694041;29;20713;-63
2023/03/23 06:18:05;;;;;;;2.60;1.73;;;15.30;97.20;;;;;;1694102;29;20211;-64
2023/03/23 06:18:57;;;;;;;1.67;1.58;;;15.30;97.20;;;;;;1694108;29;20212;-64
2023/03/23 06:19:50;;;;;;;1.70;1.50;;;15.30;97.20;;;;;;1693827;29;20200;-65
2023/03/23 06:20:43;;;;;;;1.63;1.52;;;15.30;97.20;;;;;;1694090;29;20220;-64
2023/03/23 06:21:34;;;;;;;1.73;1.63;;;15.30;97.20;;;;;;1694213;29;20207;-64
2023/03/23 06:22:27;;;;;;;1.80;1.58;;;15.30;97.20;;;;;;1694155;29;20622;-63
2023/03/23 06:23:17;;;;;;;1.63;1.52;;;15.30;97.20;;;;;;1693822;29;20203;-64
2023/03/23 06:24:10;;;;;;;2.10;1.47;;;15.30;97.20;;;;;;1693953;29;20654;-64
2023/03/23 06:25:00;;;;;;;1.40;1.20;;;15.30;97.20;;;;;;1694171;29;20211;-64
2023/03/23 06:25:55;;;;;;;1.77;1.47;;;15.40;97.20;;;;;;1693804;29;20287;-64
2023/03/23 06:26:45;;;;;;;2.50;1.70;;;15.40;97.20;;;;;;1693999;29;20942;-64
2023/03/23 06:27:37;;;;;;;1.70;1.60;;;15.40;97.20;;;;;;1694213;29;20510;-64
2023/03/23 06:28:28;;;;;;;2.63;2.10;;;15.40;97.20;;;;;;1694263;29;20211;-64
2023/03/23 06:29:20;;;;;;;2.47;2.28;;;15.50;97.20;;;;;;1694087;29;20204;-64
2023/03/23 06:30:14;;;;;;;2.80;1.80;;;15.50;97.20;;;;;;1694076;29;20662;-64
2023/03/23 06:31:08;;;;;;;2.00;1.80;;;15.50;97.20;;;;;;1694157;29;20663;-64
2023/03/23 06:32:02;;;;;;;2.00;1.80;;;15.50;97.20;;;;;;1694258;29;20666;-65
2023/03/23 06:32:55;;;;;;;3.08;2.30;;;15.50;97.20;;;;;;1694089;29;20219;-63
2023/03/23 06:33:47;;;;;;;2.60;1.50;;;15.50;97.20;;;;;;1693802;29;20206;-63
2023/03/23 06:34:38;;;;;;;1.80;1.52;;;15.40;97.20;;;;;;1694153;29;20204;-63
2023/03/23 06:35:30;;;;;;;2.20;1.60;;;15.40;97.20;;;;;;1693828;29;20207;-64
2023/03/23 06:36:22;;;;;;;2.85;1.70;;;15.40;97.20;;;;;;1694089;29;20293;-65
2023/03/23 06:37:13;;;;;;;2.65;1.70;;;15.40;97.20;;;;;;1694047;29;20238;-64
2023/03/23 06:38:05;;;;;;;2.07;1.63;;;15.40;97.20;;;;;;1694135;29;20216;-64
2023/03/23 06:38:56;;;;;;;1.50;1.40;;;15.40;97.20;;;;;;1694173;29;20208;-63
2023/03/23 06:39:48;;;;;;;2.42;1.40;;;15.30;97.20;;;;;;1694051;29;20203;-64
2023/03/23 06:40:39;;;;;;;1.60;1.50;;;15.30;97.20;;;;;;1694062;29;20698;-66
2023/03/23 06:41:31;;;;;;;2.35;1.60;;;15.30;97.20;;;;;;1694134;29;20322;-65
2023/03/23 06:42:23;;;;;;;1.80;1.70;;;15.30;97.20;;;;;;1694046;29;20566;-64
2023/03/23 06:43:15;;;;;;;1.60;1.50;;;15.30;97.20;;;;;;1694030;29;20207;-64
2023/03/23 06:44:06;;;;;;;4.57;1.63;;;15.30;97.20;;;;;;1693906;29;20220;-64
2023/03/23 06:45:00;;;;;;;2.47;1.77;;;15.30;97.20;;;;;;1694061;29;20208;-65
2023/03/23 06:45:51;;;;;;;1.77;1.58;;;15.20;97.20;;;;;;1693744;29;20482;-65
2023/03/23 06:46:43;;;;;;;1.90;1.67;;;15.20;97.20;;;;;;1694030;29;20204;-63
2023/03/23 06:47:35;;;;;;;2.33;1.63;;;15.20;97.20;;;;;;1694012;29;20444;-65
2023/03/23 06:48:27;;;;;;;5.30;1.90;;;15.20;97.20;;;;;;1694037;29;20242;-65
2023/03/23 06:49:18;;;;;;;3.20;2.08;;;15.20;97.20;;;;;;1694002;29;20303;-63
2023/03/23 06:50:10;;;;;;;2.90;1.77;;;15.20;97.20;;;;;;1693777;29;20203;-64
2023/03/23 06:51:02;;;;;;;1.70;1.50;;;15.20;97.20;;;;;;1694018;29;20456;-65
2023/03/23 06:51:55;;;;;;;2.22;1.45;;;15.20;97.20;;;;;;1693990;29;20212;-64
2023/03/23 06:52:47;;;;;;;2.20;2.00;;;15.20;97.20;;;;;;1693712;29;20215;-64
2023/03/23 06:53:39;;;;;;;2.00;1.67;;;15.30;97.20;;;;;;1694006;29;20620;-64
2023/03/23 06:54:29;;;;;;;1.48;1.33;;;15.30;97.20;;;;;;1694075;29;20200;-65
2023/03/23 06:55:21;;;;;;;4.73;1.60;;;15.30;97.20;;;;;;1693778;29;20192;-65
2023/03/23 06:56:13;;;;;;;1.92;1.65;;;15.30;97.20;;;;;;1694003;29;20208;-65
2023/03/23 06:57:05;;;;;;;2.17;1.60;;;15.40;97.20;;;;;;1693962;29;20293;-65
2023/03/23 06:57:56;;;;;;;1.58;1.30;;;15.40;97.20;;;;;;1694032;29;20300;-64
2023/03/23 06:58:48;;;;;;;3.13;1.90;;;15.40;97.20;;;;;;1693977;29;20212;-64
2023/03/23 06:59:38;;;;;;;3.95;1.50;;;15.50;97.20;;;;;;1693967;29;20211;-64
2023/03/23 07:00:30;;;;;;;2.57;1.70;;;15.50;97.20;;;;;;1693911;29;21540;-66
2023/03/23 07:01:21;;;;;;;2.75;1.70;;;15.50;97.20;;;;;;1693765;29;20239;-63
2023/03/23 07:02:15;;;;;;;3.97;1.95;;;15.60;97.20;;;;;;1694013;29;20573;-64
2023/03/23 07:03:09;;;;;;;2.97;1.75;;;15.60;97.20;;;;;;1693948;29;20223;-64
2023/03/23 07:04:00;;;;;;;3.85;1.45;;;15.60;97.20;;;;;;1694034;29;20219;-65
2023/03/23 07:04:53;;;;;;;1.83;1.70;;;15.70;97.20;;;;;;1693881;29;20230;-64
2023/03/23 07:05:46;;;;;;;2.55;1.50;;;15.70;97.20;;;;;;1693769;29;20287;-64
2023/03/23 07:06:37;;;;;;;1.80;1.70;;;15.70;97.20;;;;;;1693913;29;20581;-64
2023/03/23 07:07:28;;;;;;;1.70;1.40;;;15.70;97.20;;;;;;1693972;29;20219;-65
2023/03/23 07:08:20;;;;;;;1.73;1.50;;;15.70;97.20;;;;;;1694203;29;20370;-64
2023/03/23 07:09:11;;;;;;;1.60;1.48;;;15.70;97.20;;;;;;1693947;29;20211;-64
2023/03/23 07:10:04;;;;;;;1.90;1.52;;;15.70;97.20;;;;;;1694037;29;20200;-64
2023/03/23 07:10:56;;;;;;;1.77;1.60;;;15.80;97.20;;;;;;1693936;29;20232;-64
2023/03/23 07:11:51;;;;;;;2.75;1.95;;;15.70;97.20;;;;;;1693903;29;20263;-64
2023/03/23 07:12:42;;;;;;;1.60;1.50;;;15.80;97.20;;;;;;1693903;29;20711;-65
2023/03/23 07:13:33;;;;;;;3.30;1.70;;;15.80;97.20;;;;;;1693991;29;20200;-65
2023/03/23 07:14:24;;;;;;;1.50;1.40;;;15.80;97.20;;;;;;1693944;29;20211;-64
2023/03/23 07:15:16;;;;;;;1.90;1.60;;;15.80;97.20;;;;;;1693530;29;20280;-64
2023/03/23 07:16:08;;;;;;;2.50;1.25;;;15.80;97.20;;;;;;1693864;29;20204;-64
2023/03/23 07:17:00;;;;;;;1.75;1.50;;;15.80;97.20;;;;;;1694765;29;20575;-64
2023/03/23 07:17:51;;;;;;;3.08;1.30;;;15.80;97.20;;;;;;1695119;29;20212;-64
2023/03/23 07:18:44;;;;;;;1.77;1.50;;;15.80;97.20;;;;;;1695136;29;20239;-66
2023/03/23 07:19:35;;;;;;;1.88;1.58;;;15.80;97.20;;;;;;1695139;29;20200;-64
2023/03/23 07:20:27;;;;;;;2.40;1.70;;;15.80;97.20;;;;;;1695081;29;20207;-64
2023/03/23 07:21:18;;;;;;;1.92;1.52;;;15.80;97.20;;;;;;1695232;29;20786;-65
2023/03/23 07:22:10;;;;;;;2.43;1.83;;;15.80;97.20;;;;;;1695182;29;20718;-64
2023/03/23 07:23:01;;;;;;;2.20;1.63;;;15.80;97.20;;;;;;1695069;29;20670;-65
2023/03/23 07:23:53;;;;;;;2.42;1.50;;;15.80;97.20;;;;;;1695175;29;20211;-65
2023/03/23 07:24:44;;;;;;;1.92;1.50;;;15.70;97.20;;;;;;1695154;29;20228;-65
2023/03/23 07:25:36;;;;;;;1.90;1.57;;;15.70;97.20;;;;;;1694882;29;20212;-64
2023/03/23 07:26:27;;;;;;;4.13;1.80;;;15.70;97.20;;;;;;1695067;29;20204;-64
2023/03/23 07:27:19;;;;;;;4.35;1.58;;;15.70;97.20;;;;;;1695014;29;20689;-63
2023/03/23 07:28:10;;;;;;;2.78;1.45;;;15.70;97.20;;;;;;1695114;29;20203;-64
2023/03/23 07:29:01;;;;;;;1.92;1.55;;;15.70;97.20;;;;;;1695109;29;20287;-64
2023/03/23 07:29:52;;;;;;;1.65;1.55;;;15.70;97.20;;;;;;1695098;29;20216;-65
2023/03/23 07:30:44;;;;;;;1.90;1.50;;;15.70;97.20;;;;;;1694914;29;20235;-64
2023/03/23 07:31:36;;;;;;;1.65;1.55;;;15.70;97.20;;;;;;1694764;29;20204;-65
2023/03/23 07:32:27;;;;;;;2.90;1.83;;;15.70;97.20;;;;;;1695024;29;20204;-64
2023/03/23 07:33:18;;;;;;;3.45;1.58;;;15.70;97.20;;;;;;1695020;29;20203;-64
2023/03/23 07:34:11;;;;;;;2.30;1.57;;;15.70;97.20;;;;;;1695075;29;20207;-65
2023/03/23 07:35:03;;;;;;;1.90;1.77;;;15.70;97.20;;;;;;1695134;29;20451;-64
2023/03/23 07:35:55;;;;;;;1.70;1.60;;;15.70;97.20;;;;;;1694753;29;20215;-64
2023/03/23 07:36:46;;;;;;;1.98;1.70;;;15.70;97.20;;;;;;1694929;29;20219;-63
2023/03/23 07:37:37;;;;;;;1.67;1.57;;;15.70;97.20;;;;;;1694989;29;20210;-64
2023/03/23 07:38:29;;;;;;;2.00;1.50;;;15.70;97.20;;;;;;1694926;29;20451;-64
2023/03/23 07:39:23;;;;;;;2.10;1.60;;;15.70;97.20;;;;;;1695076;29;20309;-63
2023/03/23 07:40:14;;;;;;;2.88;1.65;;;15.70;97.20;;;;;;1694882;29;20204;-63
2023/03/23 07:41:07;;;;;;;2.25;1.50;;;15.70;97.20;;;;;;1695128;29;20629;-63
2023/03/23 07:41:57;;;;;;;1.73;1.60;;;15.70;97.20;;;;;;1694880;29;20250;-63
2023/03/23 07:42:53;;;;;;;3.10;1.70;;;15.70;97.20;;;;;;1694910;29;20211;-64
2023/03/23 07:43:45;;;;;;;1.95;1.60;;;15.70;97.20;;;;;;1695034;29;20690;-64
2023/03/23 07:44:38;;;;;;;2.03;1.55;;;15.80;97.20;;;;;;1694898;29;20199;-63
2023/03/23 07:45:29;;;;;;;1.77;1.67;;;15.80;97.20;;;;;;1694708;29;20509;-62
2023/03/23 07:46:21;;;;;;;2.15;1.50;;;15.80;97.20;;;;;;1694941;29;20200;-64
2023/03/23 07:47:13;;;;;;;1.90;1.60;;;15.90;97.20;;;;;;1694909;29;20565;-64
2023/03/23 07:48:05;;;;;;;2.88;1.95;;;15.90;97.20;;;;;;1694832;29;20208;-64
2023/03/23 07:48:56;;;;;;;1.85;1.40;;;15.90;97.20;;;;;;1695054;29;20593;-64
2023/03/23 07:49:49;;;;;;;2.03;1.80;;;15.90;97.20;;;;;;1695000;29;20259;-65
2023/03/23 07:50:40;;;;;;;1.80;1.70;;;16.00;97.20;;;;;;1694898;29;20243;-64
2023/03/23 07:51:32;;;;;;;1.67;1.55;;;16.00;97.20;;;;;;1694904;29;20254;-64
2023/03/23 07:52:23;;;;;;;2.40;1.80;;;16.00;97.20;;;;;;1695048;29;20674;-65
2023/03/23 07:53:15;;;;;;;2.22;2.03;;;16.00;97.20;;;;;;1694834;29;20263;-63
2023/03/23 07:54:07;;;;;;;2.45;1.80;;;16.10;97.20;;;;;;1694981;29;20223;-63
2023/03/23 07:55:01;;;;;;;2.15;1.95;;;16.10;97.20;;;;;;1695012;29;20291;-63
2023/03/23 07:55:52;;;;;;;2.03;1.70;;;16.10;97.20;;;;;;1694617;29;20212;-64
2023/03/23 07:56:45;;;;;;;2.58;2.00;;;16.10;97.20;;;;;;1694846;29;20211;-65
2023/03/23 07:57:35;;;;;;;1.95;1.75;;;16.10;97.20;;;;;;1694909;29;20208;-64
2023/03/23 07:58:28;;;;;;;2.20;2.00;;;16.20;97.20;;;;;;1694902;29;20256;-64
2023/03/23 07:59:18;;;;;;;2.45;2.20;;;16.20;97.20;;;;;;1694947;29;20266;-64
2023/03/23 08:00:14;;;;;;;1.83;1.67;;;16.20;97.20;;;;;;1694899;29;20263;-65
2023/03/23 08:01:06;;;;;;;1.77;1.67;;;16.20;97.20;;;;;;1694932;29;20208;-64
2023/03/23 08:01:58;;;;;;;3.25;2.05;;;16.30;97.20;;;;;;1694870;29;20689;-63
2023/03/23 08:02:51;;;;;;;3.00;2.08;;;16.30;97.20;;;;;;1694744;29;20243;-65
2023/03/23 08:03:43;;;;;;;2.53;2.30;;;16.30;97.20;;;;;;1694942;29;20689;-65
2023/03/23 08:04:37;;;;;;;2.38;2.10;;;16.30;97.20;;;;;;1694562;29;20208;-65
2023/03/23 08:05:30;;;;;;;3.58;2.00;;;16.40;97.20;;;;;;1694341;29;20224;-65
2023/03/23 08:06:21;;;;;;;2.15;1.88;;;16.40;97.20;;;;;;1694847;29;20589;-64
2023/03/23 08:07:13;;;;;;;2.60;2.10;;;16.50;97.20;;;;;;1694786;29;20259;-64
2023/03/23 08:08:04;;;;;;;1.92;1.70;;;16.50;97.20;;;;;;1694899;29;20666;-65
2023/03/23 08:08:56;;;;;;;2.28;2.08;;;16.60;97.20;;;;;;1694873;29;20240;-66
2023/03/23 08:09:48;;;;;;;1.83;1.70;;;16.60;97.20;;;;;;1694801;29;20211;-64
2023/03/23 08:10:39;;;;;;;2.53;2.20;;;16.60;97.20;;;;;;1694764;29;20246;-64
2023/03/23 08:11:30;;;;;;;2.00;1.70;;;16.70;97.20;;;;;;1694815;29;20203;-64
2023/03/23 08:12:22;;;;;;;2.77;1.80;;;16.70;97.20;;;;;;1694948;29;20200;-64
2023/03/23 08:13:12;;;;;;;2.30;1.73;;;16.70;97.20;;;;;;1694724;29;20203;-64
2023/03/23 08:14:05;;;;;;;2.00;1.80;;;16.70;97.20;;;;;;1694897;29;20684;-64
2023/03/23 08:14:56;;;;;;;1.92;1.70;;;16.80;97.20;;;;;;1694763;29;20236;-65
2023/03/23 08:15:48;;;;;;;2.50;2.10;;;16.80;97.20;;;;;;1694537;29;20243;-64
2023/03/23 08:16:40;;;;;;;3.17;1.88;;;16.80;97.20;;;;;;1694903;29;20203;-64
2023/03/23 08:17:31;;;;;;;2.38;2.17;;;16.80;97.20;;;;;;1694806;29;20204;-64
2023/03/23 08:18:23;;;;;;;2.07;1.87;;;16.80;97.20;;;;;;1694663;29;20676;-68
2023/03/23 08:19:14;;;;;;;2.50;2.20;;;16.90;97.20;;;;;;1694713;29;20659;-65
2023/03/23 08:20:12;;;;;;;4.18;2.40;;;16.90;97.20;;;;;;1694813;29;20685;-65
2023/03/23 08:21:06;;;;;;;2.85;1.80;;;16.90;97.20;;;;;;1694876;29;20223;-64
2023/03/23 08:21:57;;;;;;;2.00;1.90;;;17.00;97.20;;;;;;1694728;29;20215;-64
2023/03/23 08:22:52;;;;;;;2.30;2.10;;;17.00;97.20;;;;;;1694706;29;20216;-64
2023/03/23 08:23:45;;;;;;;2.60;2.20;;;17.10;97.20;;;;;;1694802;29;20219;-65
2023/03/23 08:24:35;;;;;;;2.40;2.15;;;17.10;97.20;;;;;;1694827;29;20294;-65
2023/03/23 08:25:27;;;;;;;3.80;2.30;;;17.20;97.20;;;;;;1694331;29;20227;-64
2023/03/23 08:26:18;;;;;;;2.20;2.00;;;17.30;97.20;;;;;;1694826;29;20208;-65
2023/03/23 08:27:10;;;;;;;2.20;2.00;;;17.40;97.20;;;;;;1694688;29;20287;-65
2023/03/23 08:28:01;;;;;;;2.13;1.92;;;17.50;97.20;;;;;;1694288;29;20208;-65
2023/03/23 08:28:53;;;;;;;4.43;2.10;;;17.60;97.20;;;;;;1694330;29;20200;-64
2023/03/23 08:29:44;;;;;;;2.38;2.10;;;17.70;97.20;;;;;;1694824;29;20588;-64
2023/03/23 08:30:39;;;;;;;3.67;2.20;;;17.80;97.20;;;;;;1694572;29;20766;-65
2023/03/23 08:31:30;;;;;;;2.38;1.90;;;17.90;97.20;;;;;;1694731;29;20210;-66
2023/03/23 08:32:22;;;;;;;2.27;1.97;;;17.90;97.20;;;;;;1694780;29;20259;-64
2023/03/23 08:33:14;;;;;;;2.88;2.08;;;18.00;97.20;;;;;;1694640;29;20208;-65
2023/03/23 08:34:06;;;;;;;2.10;1.90;;;18.00;97.20;;;;;;1694687;29;20723;-64
2023/03/23 08:34:57;;;;;;;2.80;2.10;;;18.00;97.20;;;;;;1694410;29;20218;-65
2023/03/23 08:35:56;;;;;;;3.10;2.38;;;18.00;97.20;;;;;;1694474;29;20286;-64
2023/03/23 08:36:51;;;;;;;3.75;2.15;;;18.10;97.20;;;;;;1694601;29;20270;-65
2023/03/23 08:37:43;;;;;;;3.25;2.17;;;18.00;97.20;;;;;;1694530;29;20200;-64
2023/03/23 08:38:34;;;;;;;2.58;2.13;;;18.00;97.20;;;;;;1694603;29;20208;-64
2023/03/23 08:39:26;;;;;;;2.07;1.97;;;17.90;97.20;;;;;;1694650;29;20206;-64
2023/03/23 08:40:19;;;;;;;3.90;2.20;;;17.90;97.20;;;;;;1694517;29;20444;-65
2023/03/23 08:41:11;;;;;;;2.38;2.17;;;17.80;97.20;;;;;;1694598;29;20236;-64
2023/03/23 08:42:02;;;;;;;2.15;1.98;;;17.80;97.20;;;;;;1694842;29;20671;-64
2023/03/23 08:42:54;;;;;;;2.27;2.07;;;17.70;97.20;;;;;;1694649;29;20571;-65
2023/03/23 08:43:46;;;;;;;1.80;1.70;;;17.60;97.20;;;;;;1694738;29;20459;-65
2023/03/23 08:44:37;;;;;;;1.95;1.85;;;17.60;97.20;;;;;;1694679;29;20270;-65
2023/03/23 08:45:30;;;;;;;2.47;2.10;;;17.50;97.20;;;;;;1694210;29;20230;-64
2023/03/23 08:46:20;;;;;;;3.05;1.83;;;17.50;97.20;;;;;;1694660;29;20469;-65
2023/03/23 08:47:12;;;;;;;2.27;2.07;;;17.50;97.20;;;;;;1694593;29;20259;-65
2023/03/23 08:48:03;;;;;;;2.97;2.00;;;17.50;97.20;;;;;;1694631;29;20584;-65
2023/03/23 08:48:55;;;;;;;2.10;1.88;;;17.50;97.20;;;;;;1694562;29;20204;-65
2023/03/23 08:49:46;;;;;;;2.00;1.90;;;17.50;97.20;;;;;;1694218;29;20200;-65
2023/03/23 08:50:38;;;;;;;2.13;1.93;;;17.40;97.20;;;;;;1694633;29;20228;-65
2023/03/23 08:51:29;;;;;;;2.22;2.03;;;17.40;97.20;;;;;;1694601;29;20216;-66
2023/03/23 08:52:22;;;;;;;2.03;1.83;;;17.40;97.20;;;;;;1694589;29;20200;-64
2023/03/23 08:53:13;;;;;;;3.35;1.90;;;17.30;97.20;;;;;;1694582;29;20229;-63
2023/03/23 08:54:05;;;;;;;1.87;1.70;;;17.30;97.20;;;;;;1694491;29;20227;-64
2023/03/23 08:54:57;;;;;;;4.63;1.80;;;17.30;97.20;;;;;;1694480;29;20211;-64
2023/03/23 08:55:49;;;;;;;2.03;1.60;;;17.30;97.20;;;;;;1694304;29;20200;-65
2023/03/23 08:56:40;;;;;;;2.22;1.90;;;17.30;97.20;;;;;;1694507;29;20262;-64
2023/03/23 08:57:33;;;;;;;2.05;1.95;;;17.40;97.20;;;;;;1694536;29;20730;-65
2023/03/23 08:58:24;;;;;;;2.20;1.98;;;17.40;97.20;;;;;;1694631;29;20203;-65
2023/03/23 08:59:15;;;;;;;2.00;1.90;;;17.40;97.20;;;;;;1694579;29;20239;-64
2023/03/23 09:00:17;;;;;;;2.80;1.70;;;17.40;97.20;;;;;;1694534;29;20997;-65
2023/03/23 09:01:10;;;;;;;2.55;1.65;;;17.40;97.20;;;;;;1694514;29;20216;-64
2023/03/23 09:02:01;;;;;;;1.83;1.55;;;17.40;97.20;;;;;;1694608;29;20534;-64
2023/03/23 09:02:56;;;;;;;1.80;1.70;;;17.40;97.20;;;;;;1694454;29;20529;-64
2023/03/23 09:03:47;;;;;;;1.67;1.38;;;17.40;97.20;;;;;;1694485;29;20542;-64
2023/03/23 09:04:39;;;;;;;3.90;1.87;;;17.30;97.20;;;;;;1694480;29;20255;-65
2023/03/23 09:05:30;;;;;;;2.00;1.60;;;17.30;97.20;;;;;;1693924;29;20725;-65
2023/03/23 09:06:22;;;;;;;1.70;1.60;;;17.40;97.20;;;;;;1694471;29;20212;-66
2023/03/23 09:07:14;;;;;;;1.73;1.63;;;17.40;97.20;;;;;;1694360;29;20208;-64
2023/03/23 09:08:09;;;;;;;2.10;1.90;;;17.50;97.20;;;;;;1694405;29;20203;-64
2023/03/23 09:09:01;;;;;;;1.75;1.58;;;17.60;97.20;;;;;;1694458;29;20215;-64
2023/03/23 09:09:53;;;;;;;1.77;1.63;;;17.70;97.20;;;;;;1694418;29;20570;-64
2023/03/23 09:10:43;;;;;;;2.90;1.70;;;17.70;97.20;;;;;;1694430;29;20231;-65
2023/03/23 09:11:36;;;;;;;2.20;1.77;;;17.70;97.20;;;;;;1694451;29;20207;-63
2023/03/23 09:12:27;;;;;;;2.65;1.80;;;17.80;97.20;;;;;;1694420;29;20208;-64
2023/03/23 09:13:19;;;;;;;1.37;1.27;;;17.90;97.20;;;;;;1694383;29;20199;-65
2023/03/23 09:14:11;;;;;;;1.98;1.80;;;18.00;97.20;;;;;;1694464;29;20231;-64
2023/03/23 09:15:08;;;;;;;1.77;1.67;;;18.10;97.20;;;;;;1694486;29;20203;-64
2023/03/23 09:15:58;;;;;;;2.42;1.80;;;18.10;97.20;;;;;;1694228;29;20204;-65
2023/03/23 09:16:50;;;;;;;2.77;1.70;;;18.30;97.20;;;;;;1694390;29;20223;-64
2023/03/23 09:17:43;;;;;;;3.00;2.00;;;18.40;97.20;;;;;;1694412;29;20689;-64
2023/03/23 09:18:35;;;;;;;1.60;1.50;;;18.50;97.20;;;;;;1694408;29;20204;-64
2023/03/23 09:19:25;;;;;;;1.80;1.60;;;18.60;97.20;;;;;;1694408;29;20208;-63
2023/03/23 09:20:20;;;;;;;1.80;1.60;;;18.70;97.20;;;;;;1694373;29;20283;-64
2023/03/23 09:21:12;;;;;;;2.05;1.80;;;18.90;97.20;;;;;;1694331;29;20216;-64
2023/03/23 09:22:03;;;;;;;2.33;1.50;;;19.00;97.20;;;;;;1694163;29;20212;-65
2023/03/23 09:22:57;;;;;;;1.90;1.70;;;19.20;97.20;;;;;;1694423;29;20276;-64
2023/03/23 09:23:50;;;;;;;1.70;1.33;;;19.30;97.20;;;;;;1694383;29;20254;-65
2023/03/23 09:24:42;;;;;;;2.35;2.03;;;19.40;97.20;;;;;;1694386;29;20207;-65
2023/03/23 09:25:32;;;;;;;1.48;1.38;;;19.50;97.20;;;;;;1693950;29;20208;-65
2023/03/23 09:26:25;;;;;;;3.67;2.00;;;19.60;97.20;;;;;;1694350;29;20215;-64
2023/03/23 09:27:16;;;;;;;1.80;1.70;;;19.60;97.20;;;;;;1694272;29;20554;-65
2023/03/23 09:28:07;;;;;;;1.73;1.30;;;19.70;97.20;;;;;;1694349;29;20222;-65
2023/03/23 09:28:58;;;;;;;1.83;1.40;;;19.70;97.20;;;;;;1694405;29;20467;-65
2023/03/23 09:29:50;;;;;;;2.67;1.93;;;19.80;97.20;;;;;;1694372;29;20203;-64
2023/03/23 09:30:43;;;;;;;3.67;1.80;;;19.70;97.20;;;;;;1694214;29;20713;-65
2023/03/23 09:31:36;;;;;;;2.35;1.70;;;19.60;97.20;;;;;;1694371;29;20211;-64
2023/03/23 09:32:28;;;;;;;1.50;1.30;;;19.50;97.20;;;;;;1694277;29;20258;-65
2023/03/23 09:33:18;;;;;;;2.05;1.42;;;19.40;97.20;;;;;;1694061;29;20195;-65
2023/03/23 09:34:11;;;;;;;1.70;1.60;;;19.30;97.20;;;;;;1694295;29;20206;-64
2023/03/23 09:35:03;;;;;;;1.70;1.60;;;19.30;97.20;;;;;;1694223;29;20208;-65
2023/03/23 09:35:55;;;;;;;2.30;1.42;;;19.20;97.20;;;;;;1694033;29;20626;-64
2023/03/23 09:36:45;;;;;;;2.85;1.45;;;19.10;97.20;;;;;;1694233;29;20218;-65
2023/03/23 09:37:38;;;;;;;2.13;1.90;;;19.00;97.20;;;;;;1694290;29;20200;-65
2023/03/23 09:38:32;;;;;;;2.85;1.88;;;18.80;97.20;;;;;;1694284;29;20594;-65
2023/03/23 09:39:25;;;;;;;5.40;1.60;;;18.70;97.20;;;;;;1694134;29;20236;-66
2023/03/23 09:40:19;;;;;;;1.75;1.30;;;18.60;97.20;;;;;;1694241;29;20215;-64
2023/03/23 09:41:24;;;;;;;2.38;1.63;;;18.60;97.20;;;;;;1694258;29;20303;-64
2023/03/23 09:42:31;;;;;;;2.58;1.52;;;18.50;97.20;;;;;;1694346;29;20309;-64
2023/03/23 09:43:45;;;;;;;2.53;1.75;;;18.40;97.20;;;;;;1694357;29;20204;-63
2023/03/23 09:44:47;;;;;;;1.50;1.40;;;18.30;97.20;;;;;;1694527;29;20200;-63
2023/03/23 09:45:45;;;;;;;2.35;1.60;;;18.20;97.20;;;;;;1694089;29;20298;-63
2023/03/23 09:46:48;;;;;;;2.20;1.70;;;18.10;97.20;;;;;;1694189;29;20211;-65
2023/03/23 09:47:50;;;;;;;1.65;1.55;;;18.10;97.20;;;;;;1694508;29;20204;-65
2023/03/23 09:48:50;;;;;;;2.30;1.67;;;18.00;97.20;;;;;;1694196;29;20204;-64
2023/03/23 09:49:46;;;;;;;2.00;1.70;;;18.00;97.20;;;;;;1694359;29;20337;-64
2023/03/23 09:50:41;;;;;;;2.28;1.55;;;17.90;97.20;;;;;;1694179;29;20220;-63
2023/03/23 09:51:42;;;;;;;1.73;1.50;;;17.90;97.20;;;;;;1694376;29;20671;-64
2023/03/23 09:52:40;;;;;;;1.67;1.58;;;17.90;97.20;;;;;;1694399;29;20220;-66
2023/03/23 09:53:38;;;;;;;2.30;2.00;;;17.90;97.20;;;;;;1694340;29;20659;-65
2023/03/23 09:54:35;;;;;;;2.58;1.75;;;17.90;97.20;;;;;;1694209;29;20211;-64
2023/03/23 09:55:28;;;;;;;2.60;1.75;;;17.90;97.20;;;;;;1694075;29;20214;-64
2023/03/23 09:56:20;;;;;;;2.00;1.80;;;17.90;97.20;;;;;;1694185;29;20674;-65
2023/03/23 09:57:17;;;;;;;2.10;1.88;;;17.90;97.20;;;;;;1694157;29;20238;-65
2023/03/23 09:58:15;;;;;;;3.13;1.85;;;17.90;97.20;;;;;;1694190;29;20215;-64
2023/03/23 09:59:14;;;;;;;2.88;1.80;;;18.00;97.20;;;;;;1694188;29;20200;-65
2023/03/23 10:00:14;;;;;;;6.07;2.05;;;18.00;97.20;;;;;;1694235;29;20642;-66
2023/03/23 10:01:10;;;;;;;2.97;1.88;;;18.00;97.20;;;;;;1694377;29;20242;-64
2023/03/23 10:02:13;;;;;;;3.25;1.63;;;18.00;97.20;;;;;;1694181;29;20207;-65
2023/03/23 10:03:07;;;;;;;3.28;2.17;;;18.00;97.20;;;;;;1693781;29;20682;-65
2023/03/23 10:04:04;;;;;;;5.13;2.20;;;18.10;97.20;;;;;;1694090;29;20196;-65
2023/03/23 10:05:02;;;;;;;2.00;1.75;;;18.20;97.20;;;;;;1694129;29;20239;-68
2023/03/23 10:05:55;;;;;;;2.10;1.90;;;18.40;97.20;;;;;;1693939;29;20291;-66
2023/03/23 10:06:47;;;;;;;1.92;1.83;;;18.50;97.20;;;;;;1694154;29;20215;-67
2023/03/23 10:07:38;;;;;;;1.85;1.60;;;18.60;97.20;;;;;;1694320;29;20742;-67
2023/03/23 10:08:33;;;;;;;3.85;1.80;;;18.80;97.20;;;;;;1694128;29;20207;-67
2023/03/23 10:09:26;;;;;;;2.17;1.70;;;19.00;97.20;;;;;;1694184;29;20213;-66
2023/03/23 10:10:20;;;;;;;2.80;1.77;;;19.40;97.20;;;;;;1694232;29;20548;-66
2023/03/23 10:11:17;;;;;;;2.30;1.70;;;19.70;97.20;;;;;;1694130;29;20212;-66
2023/03/23 10:12:19;;;;;;;2.28;1.80;;;19.90;97.20;;;;;;1694249;29;20707;-67
2023/03/23 10:13:20;;;;;;;2.05;1.70;;;20.40;97.20;;;;;;1694134;29;20207;-67
2023/03/23 10:14:38;;;;;;;2.33;2.13;;;21.10;97.20;;;;;;1694135;29;20629;-67
2023/03/23 10:15:32;;;;;;;2.55;1.85;;;21.70;97.20;;;;;;1693969;29;20630;-65
2023/03/23 10:16:27;;;;;;;2.33;2.00;;;22.00;97.20;;;;;;1694122;29;20271;-68
2023/03/23 10:17:23;;;;;;;1.67;1.58;;;22.10;97.20;;;;;;1694188;29;20235;-67
2023/03/23 10:18:21;;;;;;;2.25;1.90;;;22.10;97.20;;;;;;1694226;29;20283;-67
2023/03/23 10:19:20;;;;;;;1.80;1.70;;;21.90;97.20;;;;;;1693995;29;20677;-67
2023/03/23 10:20:28;;;;;;;2.05;1.85;;;21.80;97.20;;;;;;1694119;29;20328;-66
2023/03/23 10:21:22;;;;;;;2.70;1.98;;;21.60;97.20;;;;;;1694162;29;20208;-67
2023/03/23 10:22:19;;;;;;;2.90;1.70;;;21.50;97.20;;;;;;1694075;29;20210;-67
2023/03/23 10:23:15;;;;;;;2.95;1.80;;;21.40;97.20;;;;;;1694018;29;20242;-66
2023/03/23 10:24:10;;;;;;;1.63;1.52;;;21.40;97.20;;;;;;1694045;29;20215;-68
2023/03/23 10:25:15;;;;;;;2.28;1.70;;;21.40;97.20;;;;;;1694209;29;20208;-67
2023/03/23 10:26:16;;;;;;;4.30;1.60;;;21.40;97.20;;;;;;1694198;29;20736;-67
2023/03/23 10:27:21;;;;;;;2.60;1.85;;;21.60;97.20;;;;;;1687493;29;20217;-67
2023/03/23 10:28:13;;;;;;;1.85;1.75;;;21.70;97.20;;;;;;1688573;29;20304;-65
2023/03/23 10:29:14;;;;;;;3.25;1.95;;;21.80;97.20;;;;;;1694120;29;20275;-67
2023/03/23 10:30:17;;;;;;;4.15;2.17;;;21.90;97.20;;;;;;1694143;29;20208;-66
2023/03/23 10:31:12;;;;;;;1.83;1.73;;;22.00;97.20;;;;;;1694091;29;20223;-68
2023/03/23 10:32:12;;;;;;;2.30;1.52;;;22.00;97.20;;;;;;1694143;29;20239;-67
2023/03/23 10:33:06;;;;;;;2.20;1.90;;;21.80;97.20;;;;;;1694157;29;20207;-67
2023/03/23 10:34:04;;;;;;;1.75;1.65;;;21.60;97.20;;;;;;1694127;29;20352;-67
2023/03/23 10:34:59;;;;;;;2.85;1.90;;;21.40;97.20;;;;;;1694216;29;20295;-66
2023/03/23 10:36:00;;;;;;;2.00;1.85;;;21.20;97.20;;;;;;1693854;29;20212;-66
2023/03/23 10:37:00;;;;;;;2.00;1.80;;;21.00;97.20;;;;;;1694193;29;20215;-67
2023/03/23 10:37:58;;;;;;;2.10;1.90;;;20.80;97.20;;;;;;1694087;29;20232;-67